sensor_id;sensor_type;location;lat;lon;timestamp;P1;durP1;ratioP1;P2;durP2;ratioP2
27796;SDS011;15177;50.844;4.412;2022-10-04T00:04:56;19.77;;;9.48;;
27796;SDS011;15177;50.844;4.412;2022-10-04T00:07:28;22.25;;;8.65;;
27796;SDS011;15177;50.844;4.412;2022-10-04T00:10:03;16.52;;;8.30;;
27796;SDS011;15177;50.844;4.412;2022-10-04T00:12:31;17.90;;;8.10;;
27796;SDS011;15177;50.844;4.412;2022-10-04T00:15:02;21.65;;;8.35;;
27796;SDS011;15177;50.844;4.412;2022-10-04T00:17:41;18.50;;;8.95;;
27796;SDS011;15177;50.844;4.412;2022-10-04T00:33:37;15.98;;;8.45;;
27796;SDS011;15177;50.844;4.412;2022-10-04T00:41:47;23.77;;;9.40;;
27796;SDS011;15177;50.844;4.412;2022-10-04T00:44:32;16.42;;;8.40;;
27796;SDS011;15177;50.844;4.412;2022-10-04T00:49:56;21.02;;;10.05;;
27796;SDS011;15177;50.844;4.412;2022-10-04T00:52:47;19.33;;;8.90;;
27796;SDS011;15177;50.844;4.412;2022-10-04T00:55:40;19.23;;;9.10;;
27796;SDS011;15177;50.844;4.412;2022-10-04T00:58:17;18.23;;;8.63;;
27796;SDS011;15177;50.844;4.412;2022-10-04T01:00:56;16.80;;;7.80;;
27796;SDS011;15177;50.844;4.412;2022-10-04T01:03:33;15.47;;;8.97;;
27796;SDS011;15177;50.844;4.412;2022-10-04T01:06:04;18.23;;;8.97;;
27796;SDS011;15177;50.844;4.412;2022-10-04T01:08:33;20.13;;;8.70;;
27796;SDS011;15177;50.844;4.412;2022-10-04T01:11:26;14.85;;;8.50;;
27796;SDS011;15177;50.844;4.412;2022-10-04T01:13:59;18.42;;;8.00;;
27796;SDS011;15177;50.844;4.412;2022-10-04T01:16:27;22.73;;;8.13;;
27796;SDS011;15177;50.844;4.412;2022-10-04T01:19:16;16.05;;;8.15;;
27796;SDS011;15177;50.844;4.412;2022-10-04T01:21:57;13.83;;;7.47;;
27796;SDS011;15177;50.844;4.412;2022-10-04T01:24:37;21.27;;;8.60;;
27796;SDS011;15177;50.844;4.412;2022-10-04T01:29:52;17.02;;;8.30;;
27796;SDS011;15177;50.844;4.412;2022-10-04T01:32:19;16.53;;;7.93;;
27796;SDS011;15177;50.844;4.412;2022-10-04T01:34:46;19.10;;;8.37;;
27796;SDS011;15177;50.844;4.412;2022-10-04T01:37:12;19.35;;;7.90;;
27796;SDS011;15177;50.844;4.412;2022-10-04T01:39:38;18.27;;;8.65;;
27796;SDS011;15177;50.844;4.412;2022-10-04T01:42:22;20.67;;;7.40;;
27796;SDS011;15177;50.844;4.412;2022-10-04T01:47:29;17.10;;;7.00;;
27796;SDS011;15177;50.844;4.412;2022-10-04T01:50:03;16.20;;;6.93;;
27796;SDS011;15177;50.844;4.412;2022-10-04T01:52:34;14.37;;;7.17;;
27796;SDS011;15177;50.844;4.412;2022-10-04T01:55:14;14.23;;;7.23;;
27796;SDS011;15177;50.844;4.412;2022-10-04T01:57:48;16.23;;;8.20;;
27796;SDS011;15177;50.844;4.412;2022-10-04T02:00:19;14.03;;;6.87;;
27796;SDS011;15177;50.844;4.412;2022-10-04T02:05:18;17.40;;;6.90;;
27796;SDS011;15177;50.844;4.412;2022-10-04T02:07:51;15.93;;;6.63;;
27796;SDS011;15177;50.844;4.412;2022-10-04T02:10:19;12.17;;;6.43;;
27796;SDS011;15177;50.844;4.412;2022-10-04T02:12:46;12.40;;;6.00;;
27796;SDS011;15177;50.844;4.412;2022-10-04T02:15:17;16.67;;;6.77;;
27796;SDS011;15177;50.844;4.412;2022-10-04T02:17:44;16.30;;;6.43;;
27796;SDS011;15177;50.844;4.412;2022-10-04T02:20:15;15.87;;;6.17;;
27796;SDS011;15177;50.844;4.412;2022-10-04T02:22:48;15.43;;;5.90;;
27796;SDS011;15177;50.844;4.412;2022-10-04T02:25:17;10.23;;;6.03;;
27796;SDS011;15177;50.844;4.412;2022-10-04T02:27:44;13.70;;;6.53;;
27796;SDS011;15177;50.844;4.412;2022-10-04T02:30:11;11.60;;;6.60;;
27796;SDS011;15177;50.844;4.412;2022-10-04T02:32:38;10.77;;;6.40;;
27796;SDS011;15177;50.844;4.412;2022-10-04T02:35:25;17.43;;;6.37;;
27796;SDS011;15177;50.844;4.412;2022-10-04T02:46:35;14.17;;;6.80;;
27796;SDS011;15177;50.844;4.412;2022-10-04T02:49:34;13.63;;;7.00;;
27796;SDS011;15177;50.844;4.412;2022-10-04T02:52:05;21.43;;;7.53;;
27796;SDS011;15177;50.844;4.412;2022-10-04T02:57:28;12.53;;;7.03;;
27796;SDS011;15177;50.844;4.412;2022-10-04T03:02:41;13.53;;;6.47;;
27796;SDS011;15177;50.844;4.412;2022-10-04T03:05:32;10.73;;;6.57;;
27796;SDS011;15177;50.844;4.412;2022-10-04T03:07:59;18.37;;;7.77;;
27796;SDS011;15177;50.844;4.412;2022-10-04T03:10:25;14.07;;;7.33;;
27796;SDS011;15177;50.844;4.412;2022-10-04T03:12:51;18.50;;;7.87;;
27796;SDS011;15177;50.844;4.412;2022-10-04T03:15:18;14.97;;;7.53;;
27796;SDS011;15177;50.844;4.412;2022-10-04T03:17:45;18.27;;;9.20;;
27796;SDS011;15177;50.844;4.412;2022-10-04T03:20:11;14.07;;;8.53;;
27796;SDS011;15177;50.844;4.412;2022-10-04T03:22:40;17.33;;;7.77;;
27796;SDS011;15177;50.844;4.412;2022-10-04T03:25:20;14.17;;;7.47;;
27796;SDS011;15177;50.844;4.412;2022-10-04T03:27:52;18.13;;;8.17;;
27796;SDS011;15177;50.844;4.412;2022-10-04T03:30:18;12.53;;;7.87;;
27796;SDS011;15177;50.844;4.412;2022-10-04T03:32:44;18.13;;;7.70;;
27796;SDS011;15177;50.844;4.412;2022-10-04T03:37:48;16.37;;;7.20;;
27796;SDS011;15177;50.844;4.412;2022-10-04T03:40:14;14.60;;;8.03;;
27796;SDS011;15177;50.844;4.412;2022-10-04T03:42:40;22.23;;;8.60;;
27796;SDS011;15177;50.844;4.412;2022-10-04T03:45:11;16.73;;;8.50;;
27796;SDS011;15177;50.844;4.412;2022-10-04T03:47:42;15.23;;;8.63;;
27796;SDS011;15177;50.844;4.412;2022-10-04T03:52:36;19.97;;;9.73;;
27796;SDS011;15177;50.844;4.412;2022-10-04T03:55:06;17.40;;;8.40;;
27796;SDS011;15177;50.844;4.412;2022-10-04T03:57:35;21.50;;;9.50;;
27796;SDS011;15177;50.844;4.412;2022-10-04T04:00:03;19.67;;;9.37;;
27796;SDS011;15177;50.844;4.412;2022-10-04T04:02:44;16.20;;;8.97;;
27796;SDS011;15177;50.844;4.412;2022-10-04T04:05:27;22.10;;;9.73;;
27796;SDS011;15177;50.844;4.412;2022-10-04T04:08:31;15.93;;;9.37;;
27796;SDS011;15177;50.844;4.412;2022-10-04T04:10:58;18.57;;;10.00;;
27796;SDS011;15177;50.844;4.412;2022-10-04T04:13:29;18.93;;;8.73;;
27796;SDS011;15177;50.844;4.412;2022-10-04T04:16:14;19.17;;;9.60;;
27796;SDS011;15177;50.844;4.412;2022-10-04T04:18:44;22.57;;;10.47;;
27796;SDS011;15177;50.844;4.412;2022-10-04T04:21:13;23.13;;;10.07;;
27796;SDS011;15177;50.844;4.412;2022-10-04T04:23:48;21.27;;;10.43;;
27796;SDS011;15177;50.844;4.412;2022-10-04T04:29:16;15.03;;;10.40;;
27796;SDS011;15177;50.844;4.412;2022-10-04T04:31:55;23.97;;;10.70;;
27796;SDS011;15177;50.844;4.412;2022-10-04T04:34:31;24.13;;;9.80;;
27796;SDS011;15177;50.844;4.412;2022-10-04T04:36:58;19.00;;;9.67;;
27796;SDS011;15177;50.844;4.412;2022-10-04T04:39:26;15.07;;;8.90;;
27796;SDS011;15177;50.844;4.412;2022-10-04T04:42:10;19.27;;;10.83;;
27796;SDS011;15177;50.844;4.412;2022-10-04T04:44:47;18.53;;;9.50;;
27796;SDS011;15177;50.844;4.412;2022-10-04T04:47:36;21.37;;;9.07;;
27796;SDS011;15177;50.844;4.412;2022-10-04T04:50:11;16.57;;;9.77;;
27796;SDS011;15177;50.844;4.412;2022-10-04T04:52:39;22.50;;;10.63;;
27796;SDS011;15177;50.844;4.412;2022-10-04T04:55:15;29.80;;;10.43;;
27796;SDS011;15177;50.844;4.412;2022-10-04T04:57:47;22.43;;;9.70;;
27796;SDS011;15177;50.844;4.412;2022-10-04T05:00:16;23.97;;;11.00;;
27796;SDS011;15177;50.844;4.412;2022-10-04T05:02:50;18.13;;;9.57;;
27796;SDS011;15177;50.844;4.412;2022-10-04T05:05:28;18.40;;;10.00;;
27796;SDS011;15177;50.844;4.412;2022-10-04T05:08:14;20.47;;;9.87;;
27796;SDS011;15177;50.844;4.412;2022-10-04T05:13:13;19.77;;;9.33;;
27796;SDS011;15177;50.844;4.412;2022-10-04T05:15:43;22.57;;;8.93;;
27796;SDS011;15177;50.844;4.412;2022-10-04T05:18:29;18.33;;;8.93;;
27796;SDS011;15177;50.844;4.412;2022-10-04T05:20:58;23.17;;;8.47;;
27796;SDS011;15177;50.844;4.412;2022-10-04T05:23:33;14.57;;;9.27;;
27796;SDS011;15177;50.844;4.412;2022-10-04T05:25:59;16.53;;;8.70;;
27796;SDS011;15177;50.844;4.412;2022-10-04T05:28:28;17.20;;;8.97;;
27796;SDS011;15177;50.844;4.412;2022-10-04T05:33:45;19.00;;;8.87;;
27796;SDS011;15177;50.844;4.412;2022-10-04T05:44:27;13.50;;;6.77;;
27796;SDS011;15177;50.844;4.412;2022-10-04T05:46:59;17.37;;;7.13;;
27796;SDS011;15177;50.844;4.412;2022-10-04T05:49:28;18.90;;;8.53;;
27796;SDS011;15177;50.844;4.412;2022-10-04T05:51:59;16.50;;;7.33;;
27796;SDS011;15177;50.844;4.412;2022-10-04T05:54:28;18.50;;;7.43;;
27796;SDS011;15177;50.844;4.412;2022-10-04T06:05:27;23.03;;;7.80;;
27796;SDS011;15177;50.844;4.412;2022-10-04T06:08:36;15.67;;;7.10;;
27796;SDS011;15177;50.844;4.412;2022-10-04T06:19:26;16.13;;;7.07;;
27796;SDS011;15177;50.844;4.412;2022-10-04T06:24:42;18.77;;;6.73;;
27796;SDS011;15177;50.844;4.412;2022-10-04T06:30:18;16.53;;;6.80;;
27796;SDS011;15177;50.844;4.412;2022-10-04T06:32:57;19.97;;;6.90;;
27796;SDS011;15177;50.844;4.412;2022-10-04T06:35:44;20.03;;;7.00;;
27796;SDS011;15177;50.844;4.412;2022-10-04T06:38:35;14.73;;;6.83;;
27796;SDS011;15177;50.844;4.412;2022-10-04T06:41:54;13.20;;;6.50;;
27796;SDS011;15177;50.844;4.412;2022-10-04T06:44:46;14.47;;;6.83;;
27796;SDS011;15177;50.844;4.412;2022-10-04T06:47:57;11.80;;;6.67;;
27796;SDS011;15177;50.844;4.412;2022-10-04T06:50:39;16.77;;;6.87;;
27796;SDS011;15177;50.844;4.412;2022-10-04T06:53:25;12.83;;;6.50;;
27796;SDS011;15177;50.844;4.412;2022-10-04T07:01:48;16.00;;;5.03;;
27796;SDS011;15177;50.844;4.412;2022-10-04T07:10:00;17.60;;;5.93;;
27796;SDS011;15177;50.844;4.412;2022-10-04T07:15:43;18.98;;;5.55;;
27796;SDS011;15177;50.844;4.412;2022-10-04T07:18:21;14.30;;;4.72;;
27796;SDS011;15177;50.844;4.412;2022-10-04T07:20:51;11.75;;;4.65;;
27796;SDS011;15177;50.844;4.412;2022-10-04T07:23:27;13.23;;;4.57;;
27796;SDS011;15177;50.844;4.412;2022-10-04T07:26:04;9.88;;;4.30;;
27796;SDS011;15177;50.844;4.412;2022-10-04T07:28:39;16.17;;;4.35;;
27796;SDS011;15177;50.844;4.412;2022-10-04T07:31:27;10.93;;;4.20;;
27796;SDS011;15177;50.844;4.412;2022-10-04T07:33:55;13.55;;;4.13;;
27796;SDS011;15177;50.844;4.412;2022-10-04T07:36:37;13.50;;;4.78;;
27796;SDS011;15177;50.844;4.412;2022-10-04T07:39:24;9.75;;;4.22;;
27796;SDS011;15177;50.844;4.412;2022-10-04T07:41:58;11.68;;;4.45;;
27796;SDS011;15177;50.844;4.412;2022-10-04T07:44:42;13.75;;;4.03;;
27796;SDS011;15177;50.844;4.412;2022-10-04T07:47:22;12.18;;;4.75;;
27796;SDS011;15177;50.844;4.412;2022-10-04T07:49:50;10.05;;;4.25;;
27796;SDS011;15177;50.844;4.412;2022-10-04T08:00:49;11.57;;;3.90;;
27796;SDS011;15177;50.844;4.412;2022-10-04T08:06:50;12.10;;;4.40;;
27796;SDS011;15177;50.844;4.412;2022-10-04T08:15:15;15.57;;;5.05;;
27796;SDS011;15177;50.844;4.412;2022-10-04T08:29:10;12.90;;;4.13;;
27796;SDS011;15177;50.844;4.412;2022-10-04T08:38:10;10.20;;;4.88;;
27796;SDS011;15177;50.844;4.412;2022-10-04T08:52:39;9.23;;;4.28;;
27796;SDS011;15177;50.844;4.412;2022-10-04T08:58:23;10.18;;;4.75;;
27796;SDS011;15177;50.844;4.412;2022-10-04T09:07:27;10.93;;;5.18;;
27796;SDS011;15177;50.844;4.412;2022-10-04T09:10:04;11.15;;;4.10;;
27796;SDS011;15177;50.844;4.412;2022-10-04T09:15:32;13.40;;;4.40;;
27796;SDS011;15177;50.844;4.412;2022-10-04T09:18:27;9.25;;;4.20;;
27796;SDS011;15177;50.844;4.412;2022-10-04T09:22:02;12.23;;;3.95;;
27796;SDS011;15177;50.844;4.412;2022-10-04T09:30:00;10.80;;;4.07;;
27796;SDS011;15177;50.844;4.412;2022-10-04T09:46:28;7.53;;;4.07;;
27796;SDS011;15177;50.844;4.412;2022-10-04T10:00:05;11.95;;;4.13;;
27796;SDS011;15177;50.844;4.412;2022-10-04T10:03:18;11.25;;;4.63;;
27796;SDS011;15177;50.844;4.412;2022-10-04T10:08:06;9.32;;;4.03;;
27796;SDS011;15177;50.844;4.412;2022-10-04T10:19:53;14.18;;;4.28;;
27796;SDS011;15177;50.844;4.412;2022-10-04T11:07:47;8.27;;;3.53;;
27796;SDS011;15177;50.844;4.412;2022-10-04T11:35:45;9.73;;;3.22;;
27796;SDS011;15177;50.844;4.412;2022-10-04T11:38:34;6.57;;;3.28;;
27796;SDS011;15177;50.844;4.412;2022-10-04T11:48:09;7.95;;;3.85;;
27796;SDS011;15177;50.844;4.412;2022-10-04T11:50:27;9.80;;;3.97;;
27796;SDS011;15177;50.844;4.412;2022-10-04T11:56:19;9.00;;;3.67;;
27796;SDS011;15177;50.844;4.412;2022-10-04T12:46:29;5.72;;;3.60;;
27796;SDS011;15177;50.844;4.412;2022-10-04T12:49:07;16.80;;;4.53;;
27796;SDS011;15177;50.844;4.412;2022-10-04T12:51:52;6.90;;;4.00;;
27796;SDS011;15177;50.844;4.412;2022-10-04T13:00:20;8.35;;;4.00;;
27796;SDS011;15177;50.844;4.412;2022-10-04T13:24:48;14.13;;;4.28;;
27796;SDS011;15177;50.844;4.412;2022-10-04T13:27:44;9.27;;;4.00;;
27796;SDS011;15177;50.844;4.412;2022-10-04T13:35:28;8.23;;;4.15;;
27796;SDS011;15177;50.844;4.412;2022-10-04T13:38:23;8.82;;;4.20;;
27796;SDS011;15177;50.844;4.412;2022-10-04T13:47:27;10.88;;;3.92;;
27796;SDS011;15177;50.844;4.412;2022-10-04T14:10:30;8.93;;;3.67;;
27796;SDS011;15177;50.844;4.412;2022-10-04T14:21:23;7.28;;;3.70;;
27796;SDS011;15177;50.844;4.412;2022-10-04T14:24:19;8.27;;;3.20;;
27796;SDS011;15177;50.844;4.412;2022-10-04T14:30:19;11.18;;;3.95;;
27796;SDS011;15177;50.844;4.412;2022-10-04T14:32:56;8.15;;;3.88;;
27796;SDS011;15177;50.844;4.412;2022-10-04T14:54:55;7.40;;;2.97;;
27796;SDS011;15177;50.844;4.412;2022-10-04T15:11:10;9.48;;;3.10;;
27796;SDS011;15177;50.844;4.412;2022-10-04T15:13:53;10.68;;;3.28;;
27796;SDS011;15177;50.844;4.412;2022-10-04T15:16:36;5.95;;;3.63;;
27796;SDS011;15177;50.844;4.412;2022-10-04T15:22:23;8.50;;;3.40;;
27796;SDS011;15177;50.844;4.412;2022-10-04T15:24:52;9.88;;;3.63;;
27796;SDS011;15177;50.844;4.412;2022-10-04T15:30:00;7.07;;;3.30;;
27796;SDS011;15177;50.844;4.412;2022-10-04T15:37:57;5.88;;;3.05;;
27796;SDS011;15177;50.844;4.412;2022-10-04T15:44:03;7.10;;;3.17;;
27796;SDS011;15177;50.844;4.412;2022-10-04T15:51:57;6.60;;;3.25;;
27796;SDS011;15177;50.844;4.412;2022-10-04T15:57:38;4.28;;;3.08;;
27796;SDS011;15177;50.844;4.412;2022-10-04T16:00:10;8.15;;;4.30;;
27796;SDS011;15177;50.844;4.412;2022-10-04T16:19:27;7.18;;;3.78;;
27796;SDS011;15177;50.844;4.412;2022-10-04T16:22:16;8.05;;;3.80;;
27796;SDS011;15177;50.844;4.412;2022-10-04T16:27:20;11.30;;;3.80;;
27796;SDS011;15177;50.844;4.412;2022-10-04T16:30:01;8.90;;;3.90;;
27796;SDS011;15177;50.844;4.412;2022-10-04T16:32:58;6.07;;;3.72;;
27796;SDS011;15177;50.844;4.412;2022-10-04T16:35:38;12.63;;;4.50;;
27796;SDS011;15177;50.844;4.412;2022-10-04T16:40:46;8.73;;;4.30;;
27796;SDS011;15177;50.844;4.412;2022-10-04T16:43:32;8.73;;;4.07;;
27796;SDS011;15177;50.844;4.412;2022-10-04T16:46:07;9.32;;;3.83;;
27796;SDS011;15177;50.844;4.412;2022-10-04T16:51:13;10.68;;;4.50;;
27796;SDS011;15177;50.844;4.412;2022-10-04T17:18:49;13.55;;;5.75;;
27796;SDS011;15177;50.844;4.412;2022-10-04T17:32:24;8.60;;;5.15;;
27796;SDS011;15177;50.844;4.412;2022-10-04T17:35:03;10.98;;;5.47;;
27796;SDS011;15177;50.844;4.412;2022-10-04T17:37:43;10.63;;;5.40;;
27796;SDS011;15177;50.844;4.412;2022-10-04T17:48:40;8.63;;;6.25;;
27796;SDS011;15177;50.844;4.412;2022-10-04T17:51:53;9.73;;;5.57;;
27796;SDS011;15177;50.844;4.412;2022-10-04T17:54:44;10.90;;;5.65;;
27796;SDS011;15177;50.844;4.412;2022-10-04T17:57:48;11.55;;;6.22;;
27796;SDS011;15177;50.844;4.412;2022-10-04T18:00:24;11.05;;;6.30;;
27796;SDS011;15177;50.844;4.412;2022-10-04T18:03:09;11.77;;;5.50;;
27796;SDS011;15177;50.844;4.412;2022-10-04T18:08:10;12.05;;;6.75;;
27796;SDS011;15177;50.844;4.412;2022-10-04T18:10:51;12.32;;;6.80;;
27796;SDS011;15177;50.844;4.412;2022-10-04T18:13:38;11.70;;;6.85;;
27796;SDS011;15177;50.844;4.412;2022-10-04T18:18:54;10.73;;;6.25;;
27796;SDS011;15177;50.844;4.412;2022-10-04T18:21:30;19.90;;;7.57;;
27796;SDS011;15177;50.844;4.412;2022-10-04T18:24:01;18.52;;;7.05;;
27796;SDS011;15177;50.844;4.412;2022-10-04T18:27:01;12.43;;;6.47;;
27796;SDS011;15177;50.844;4.412;2022-10-04T18:29:43;9.27;;;6.00;;
27796;SDS011;15177;50.844;4.412;2022-10-04T18:34:53;13.73;;;6.95;;
27796;SDS011;15177;50.844;4.412;2022-10-04T18:37:39;13.13;;;7.38;;
27796;SDS011;15177;50.844;4.412;2022-10-04T18:40:19;16.25;;;8.07;;
27796;SDS011;15177;50.844;4.412;2022-10-04T18:42:57;22.25;;;8.07;;
27796;SDS011;15177;50.844;4.412;2022-10-04T18:47:59;18.60;;;8.27;;
27796;SDS011;15177;50.844;4.412;2022-10-04T18:50:36;14.00;;;7.47;;
27796;SDS011;15177;50.844;4.412;2022-10-04T19:01:57;17.42;;;7.15;;
27796;SDS011;15177;50.844;4.412;2022-10-04T19:07:37;10.93;;;7.05;;
27796;SDS011;15177;50.844;4.412;2022-10-04T19:10:20;11.85;;;6.32;;
27796;SDS011;15177;50.844;4.412;2022-10-04T19:18:28;10.70;;;6.43;;
27796;SDS011;15177;50.844;4.412;2022-10-04T19:21:11;12.98;;;7.13;;
27796;SDS011;15177;50.844;4.412;2022-10-04T19:27:05;14.48;;;7.63;;
27796;SDS011;15177;50.844;4.412;2022-10-04T19:33:05;13.52;;;7.03;;
27796;SDS011;15177;50.844;4.412;2022-10-04T19:50:01;19.70;;;7.38;;
27796;SDS011;15177;50.844;4.412;2022-10-04T19:52:35;12.70;;;8.10;;
27796;SDS011;15177;50.844;4.412;2022-10-04T19:55:19;12.60;;;8.50;;
27796;SDS011;15177;50.844;4.412;2022-10-04T19:57:50;16.75;;;8.02;;
27796;SDS011;15177;50.844;4.412;2022-10-04T20:00:22;15.55;;;7.15;;
27796;SDS011;15177;50.844;4.412;2022-10-04T20:02:48;10.70;;;6.72;;
27796;SDS011;15177;50.844;4.412;2022-10-04T20:05:18;12.13;;;6.97;;
27796;SDS011;15177;50.844;4.412;2022-10-04T20:07:56;13.57;;;7.38;;
27796;SDS011;15177;50.844;4.412;2022-10-04T20:10:30;11.77;;;7.07;;
27796;SDS011;15177;50.844;4.412;2022-10-04T20:18:49;12.02;;;6.55;;
27796;SDS011;15177;50.844;4.412;2022-10-04T20:32:01;13.27;;;6.50;;
27796;SDS011;15177;50.844;4.412;2022-10-04T20:34:46;14.18;;;7.25;;
27796;SDS011;15177;50.844;4.412;2022-10-04T20:37:13;7.75;;;5.88;;
27796;SDS011;15177;50.844;4.412;2022-10-04T20:50:01;12.35;;;6.18;;
27796;SDS011;15177;50.844;4.412;2022-10-04T20:52:43;12.45;;;6.55;;
27796;SDS011;15177;50.844;4.412;2022-10-04T20:55:19;9.23;;;6.35;;
27796;SDS011;15177;50.844;4.412;2022-10-04T20:57:49;10.65;;;7.07;;
27796;SDS011;15177;50.844;4.412;2022-10-04T21:00:16;12.82;;;6.65;;
27796;SDS011;15177;50.844;4.412;2022-10-04T21:02:48;11.52;;;6.15;;
27796;SDS011;15177;50.844;4.412;2022-10-04T21:05:25;10.60;;;6.15;;
27796;SDS011;15177;50.844;4.412;2022-10-04T21:08:36;10.40;;;6.43;;
27796;SDS011;15177;50.844;4.412;2022-10-04T21:11:17;11.55;;;6.22;;
27796;SDS011;15177;50.844;4.412;2022-10-04T21:13:48;13.73;;;6.13;;
27796;SDS011;15177;50.844;4.412;2022-10-04T21:21:57;10.85;;;5.95;;
27796;SDS011;15177;50.844;4.412;2022-10-04T21:24:33;10.88;;;5.63;;
27796;SDS011;15177;50.844;4.412;2022-10-04T21:27:04;9.80;;;5.82;;
27796;SDS011;15177;50.844;4.412;2022-10-04T21:29:33;9.90;;;5.63;;
27796;SDS011;15177;50.844;4.412;2022-10-04T21:31:59;11.30;;;5.70;;
27796;SDS011;15177;50.844;4.412;2022-10-04T21:34:25;9.63;;;5.65;;
27796;SDS011;15177;50.844;4.412;2022-10-04T21:36:51;9.00;;;5.18;;
27796;SDS011;15177;50.844;4.412;2022-10-04T21:39:16;11.95;;;6.78;;
27796;SDS011;15177;50.844;4.412;2022-10-04T21:41:42;14.15;;;6.07;;
27796;SDS011;15177;50.844;4.412;2022-10-04T21:44:09;9.57;;;5.63;;
27796;SDS011;15177;50.844;4.412;2022-10-04T21:46:35;8.38;;;5.32;;
27796;SDS011;15177;50.844;4.412;2022-10-04T21:49:01;10.43;;;5.50;;
27796;SDS011;15177;50.844;4.412;2022-10-04T21:51:27;9.68;;;5.57;;
27796;SDS011;15177;50.844;4.412;2022-10-04T21:53:57;11.30;;;5.43;;
27796;SDS011;15177;50.844;4.412;2022-10-04T21:56:23;9.05;;;5.45;;
27796;SDS011;15177;50.844;4.412;2022-10-04T21:58:48;8.95;;;5.80;;
27796;SDS011;15177;50.844;4.412;2022-10-04T22:01:14;7.70;;;5.35;;
27796;SDS011;15177;50.844;4.412;2022-10-04T22:03:40;8.77;;;5.20;;
27796;SDS011;15177;50.844;4.412;2022-10-04T22:06:06;8.02;;;5.05;;
27796;SDS011;15177;50.844;4.412;2022-10-04T22:08:32;8.57;;;5.05;;
27796;SDS011;15177;50.844;4.412;2022-10-04T22:10:57;15.07;;;5.65;;
27796;SDS011;15177;50.844;4.412;2022-10-04T22:13:23;8.15;;;5.07;;
27796;SDS011;15177;50.844;4.412;2022-10-04T22:15:52;19.95;;;5.65;;
27796;SDS011;15177;50.844;4.412;2022-10-04T22:18:17;8.85;;;5.57;;
27796;SDS011;15177;50.844;4.412;2022-10-04T22:20:43;9.45;;;6.07;;
27796;SDS011;15177;50.844;4.412;2022-10-04T22:23:10;8.07;;;5.38;;
27796;SDS011;15177;50.844;4.412;2022-10-04T22:25:42;9.13;;;5.18;;
27796;SDS011;15177;50.844;4.412;2022-10-04T22:28:17;9.15;;;5.13;;
27796;SDS011;15177;50.844;4.412;2022-10-04T22:30:46;8.75;;;5.47;;
27796;SDS011;15177;50.844;4.412;2022-10-04T22:39:05;8.63;;;5.70;;
27796;SDS011;15177;50.844;4.412;2022-10-04T22:41:36;7.57;;;5.78;;
27796;SDS011;15177;50.844;4.412;2022-10-04T22:46:41;10.25;;;4.90;;
27796;SDS011;15177;50.844;4.412;2022-10-04T22:49:09;8.35;;;6.20;;
27796;SDS011;15177;50.844;4.412;2022-10-04T22:51:37;9.13;;;4.65;;
27796;SDS011;15177;50.844;4.412;2022-10-04T22:54:11;9.10;;;4.90;;
27796;SDS011;15177;50.844;4.412;2022-10-04T22:56:39;12.45;;;5.60;;
27796;SDS011;15177;50.844;4.412;2022-10-04T22:59:08;10.25;;;4.80;;
27796;SDS011;15177;50.844;4.412;2022-10-04T23:01:40;8.70;;;4.78;;
27796;SDS011;15177;50.844;4.412;2022-10-04T23:04:25;10.15;;;5.47;;
27796;SDS011;15177;50.844;4.412;2022-10-04T23:06:52;9.32;;;5.28;;
27796;SDS011;15177;50.844;4.412;2022-10-04T23:09:17;8.65;;;4.82;;
27796;SDS011;15177;50.844;4.412;2022-10-04T23:11:43;7.43;;;5.18;;
27796;SDS011;15177;50.844;4.412;2022-10-04T23:14:10;7.57;;;5.18;;
27796;SDS011;15177;50.844;4.412;2022-10-04T23:16:36;7.07;;;5.20;;
27796;SDS011;15177;50.844;4.412;2022-10-04T23:19:12;8.77;;;4.85;;
27796;SDS011;15177;50.844;4.412;2022-10-04T23:21:41;8.38;;;4.85;;
27796;SDS011;15177;50.844;4.412;2022-10-04T23:26:38;8.68;;;5.32;;
27796;SDS011;15177;50.844;4.412;2022-10-04T23:29:06;10.02;;;6.30;;
27796;SDS011;15177;50.844;4.412;2022-10-04T23:31:57;11.55;;;5.88;;
27796;SDS011;15177;50.844;4.412;2022-10-04T23:36:55;8.43;;;5.18;;
27796;SDS011;15177;50.844;4.412;2022-10-04T23:39:24;10.50;;;6.18;;
27796;SDS011;15177;50.844;4.412;2022-10-04T23:41:53;12.50;;;5.63;;
27796;SDS011;15177;50.844;4.412;2022-10-04T23:44:33;9.50;;;5.78;;
27796;SDS011;15177;50.844;4.412;2022-10-04T23:47:00;6.18;;;5.13;;
27796;SDS011;15177;50.844;4.412;2022-10-04T23:49:27;10.25;;;5.55;;
27796;SDS011;15177;50.844;4.412;2022-10-04T23:51:57;7.90;;;5.35;;
27796;SDS011;15177;50.844;4.412;2022-10-04T23:54:25;8.32;;;5.43;;
27796;SDS011;15177;50.844;4.412;2022-10-04T23:56:51;11.30;;;5.57;;
27796;SDS011;15177;50.844;4.412;2022-10-04T23:59:18;11.23;;;5.65;;
